createdAt,value
2018-02-19T00:00:13.447Z,1010.42
2018-02-19T00:00:53.955Z,1010.45
2018-02-19T00:01:34.480Z,1010.42
2018-02-19T00:02:15.039Z,1010.43
2018-02-19T00:02:55.532Z,1010.4
2018-02-19T00:03:36.109Z,1010.34
2018-02-19T00:04:16.593Z,1010.38
2018-02-19T00:04:57.140Z,1010.4
2018-02-19T00:05:37.657Z,1010.35
2018-02-19T00:06:18.185Z,1010.36
2018-02-19T00:06:58.717Z,1010.35
2018-02-19T00:07:39.245Z,1010.41
2018-02-19T00:08:19.770Z,1010.44
2018-02-19T00:09:00.307Z,1010.42
2018-02-19T00:09:40.787Z,1010.43
2018-02-19T00:10:21.413Z,1010.43
2018-02-19T00:11:01.929Z,1010.43
2018-02-19T00:11:42.520Z,1010.46
2018-02-19T00:12:23.039Z,1010.41
2018-02-19T00:13:03.581Z,1010.42
2018-02-19T00:13:44.111Z,1010.44
2018-02-19T00:14:24.652Z,1010.38
2018-02-19T00:15:05.160Z,1010.4
2018-02-19T00:15:45.675Z,1010.4
2018-02-19T00:16:26.233Z,1010.41
2018-02-19T00:17:06.754Z,1010.42
2018-02-19T00:17:47.259Z,1010.38
2018-02-19T00:18:27.822Z,1010.38
2018-02-19T00:19:08.398Z,1010.32
2018-02-19T00:19:48.901Z,1010.34
2018-02-19T00:20:29.407Z,1010.3
2018-02-19T00:21:09.949Z,1010.27
2018-02-19T00:21:50.491Z,1010.27
2018-02-19T00:22:31.017Z,1010.24
2018-02-19T00:23:11.519Z,1010.22
2018-02-19T00:23:52.064Z,1010.2
2018-02-19T00:24:32.580Z,1010.22
2018-02-19T00:25:13.098Z,1010.19
2018-02-19T00:25:53.620Z,1010.17
2018-02-19T00:26:34.166Z,1010.12
2018-02-19T00:27:14.694Z,1010.13
2018-02-19T00:27:55.225Z,1010.14
2018-02-19T00:28:35.716Z,1010.11
2018-02-19T00:29:16.218Z,1010.08
2018-02-19T00:29:56.800Z,1010.1
2018-02-19T00:30:37.298Z,1010.07
2018-02-19T00:31:17.844Z,1010.07
2018-02-19T00:31:58.315Z,1010.09
2018-02-19T00:32:38.868Z,1010.1
2018-02-19T00:33:19.361Z,1010.1
2018-02-19T00:33:59.921Z,1010.09
2018-02-19T00:34:40.423Z,1010.04
2018-02-19T00:35:20.969Z,1010.09
2018-02-19T00:36:01.440Z,1010.06
2018-02-19T00:36:42.038Z,1010
2018-02-19T00:37:22.540Z,1009.98
2018-02-19T00:38:03.071Z,1010
2018-02-19T00:38:43.596Z,1010
2018-02-19T00:39:24.139Z,1009.98
2018-02-19T00:40:04.689Z,1009.95
2018-02-19T00:40:45.220Z,1009.91
2018-02-19T00:41:25.698Z,1009.96
2018-02-19T00:42:06.260Z,1009.94
2018-02-19T00:42:46.813Z,1009.96
2018-02-19T00:43:27.309Z,1009.91
2018-02-19T00:44:07.860Z,1009.92
2018-02-19T00:44:48.396Z,1009.88
2018-02-19T00:45:28.973Z,1009.87
2018-02-19T00:46:09.466Z,1009.85
2018-02-19T00:46:49.975Z,1009.87
2018-02-19T00:47:30.498Z,1009.9
2018-02-19T00:48:11.051Z,1009.86
2018-02-19T00:48:51.572Z,1009.88
2018-02-19T00:49:32.107Z,1009.87
2018-02-19T00:50:12.607Z,1009.89
2018-02-19T00:50:53.171Z,1009.93
2018-02-19T00:51:33.706Z,1009.87
2018-02-19T00:52:14.247Z,1009.88
2018-02-19T00:52:54.761Z,1009.9
2018-02-19T00:53:35.279Z,1009.88
2018-02-19T00:54:15.815Z,1009.88
2018-02-19T00:54:56.331Z,1009.89
2018-02-19T00:55:36.895Z,1009.88
2018-02-19T00:56:17.362Z,1009.88
2018-02-19T00:56:57.908Z,1009.85
2018-02-19T00:57:38.421Z,1009.9
2018-02-19T00:58:19.026Z,1009.88
2018-02-19T00:58:59.573Z,1009.87
2018-02-19T00:59:40.109Z,1009.88
2018-02-19T01:00:20.649Z,1009.84
2018-02-19T01:01:01.207Z,1009.83
2018-02-19T01:01:41.780Z,1009.78
2018-02-19T01:02:22.288Z,1009.8
2018-02-19T01:03:02.866Z,1009.79
2018-02-19T01:03:43.440Z,1009.79
2018-02-19T01:04:23.986Z,1009.83
2018-02-19T01:05:04.524Z,1009.82
2018-02-19T01:05:45.044Z,1009.85
2018-02-19T01:06:25.620Z,1009.83
2018-02-19T01:07:06.137Z,1009.75
2018-02-19T01:07:46.685Z,1009.73
2018-02-19T01:08:27.237Z,1009.77
2018-02-19T01:09:07.781Z,1009.74
2018-02-19T01:09:48.292Z,1009.78
2018-02-19T01:10:28.911Z,1009.71
2018-02-19T01:11:09.499Z,1009.67
2018-02-19T01:11:50.098Z,1009.68
2018-02-19T01:12:30.602Z,1009.68
2018-02-19T01:13:11.162Z,1009.67
2018-02-19T01:13:51.709Z,1009.71
2018-02-19T01:14:32.304Z,1009.66
2018-02-19T01:15:12.798Z,1009.63
2018-02-19T01:15:53.340Z,1009.62
2018-02-19T01:16:33.897Z,1009.65
2018-02-19T01:17:14.420Z,1009.65
2018-02-19T01:17:55.012Z,1009.67
2018-02-19T01:18:35.552Z,1009.61
2018-02-19T01:19:16.138Z,1009.56
2018-02-19T01:19:56.660Z,1009.63
2018-02-19T01:20:37.214Z,1009.64
2018-02-19T01:21:17.820Z,1009.6
2018-02-19T01:21:58.329Z,1009.57
2018-02-19T01:22:38.892Z,1009.57
2018-02-19T01:23:19.460Z,1009.6
2018-02-19T01:24:00.118Z,1009.58
2018-02-19T01:24:40.658Z,1009.55
2018-02-19T01:25:21.242Z,1009.56
2018-02-19T01:26:01.706Z,1009.61
2018-02-19T01:26:42.280Z,1009.56
2018-02-19T01:27:22.804Z,1009.56
2018-02-19T01:28:03.339Z,1009.53
2018-02-19T01:28:43.860Z,1009.5
2018-02-19T01:29:24.384Z,1009.51
2018-02-19T01:30:04.974Z,1009.48
2018-02-19T01:30:45.540Z,1009.5
2018-02-19T01:31:26.061Z,1009.5
2018-02-19T01:32:06.657Z,1009.53
2018-02-19T01:32:47.206Z,1009.49
2018-02-19T01:33:27.746Z,1009.45
2018-02-19T01:34:08.268Z,1009.47
2018-02-19T01:34:48.765Z,1009.45
2018-02-19T01:35:29.271Z,1009.45
2018-02-19T01:36:09.832Z,1009.44
2018-02-19T01:36:50.432Z,1009.42
2018-02-19T01:37:30.952Z,1009.42
2018-02-19T01:38:11.473Z,1009.4
2018-02-19T01:38:52.030Z,1009.36
2018-02-19T01:39:32.562Z,1009.32
2018-02-19T01:40:13.075Z,1009.35
2018-02-19T01:40:53.633Z,1009.32
2018-02-19T01:41:34.185Z,1009.24
2018-02-19T01:42:14.749Z,1009.3
2018-02-19T01:42:55.319Z,1009.31
2018-02-19T01:43:35.887Z,1009.25
2018-02-19T01:44:16.430Z,1009.22
2018-02-19T01:44:56.980Z,1009.21
2018-02-19T01:45:37.491Z,1009.18
2018-02-19T01:46:18.007Z,1009.18
2018-02-19T01:46:58.568Z,1009.17
2018-02-19T01:47:39.103Z,1009.15
2018-02-19T01:48:19.654Z,1009.15
2018-02-19T01:49:00.198Z,1009.14
2018-02-19T01:49:40.707Z,1009.14
2018-02-19T01:50:21.220Z,1009.11
2018-02-19T01:51:01.757Z,1009.09
2018-02-19T01:51:42.335Z,1009.05
2018-02-19T01:52:23.002Z,1009.11
2018-02-19T01:53:03.550Z,1009.1
2018-02-19T01:53:44.278Z,1009.09
2018-02-19T01:54:24.852Z,1009.05
2018-02-19T01:55:05.402Z,1009.08
2018-02-19T01:55:45.919Z,1009.08
2018-02-19T01:56:26.474Z,1009.09
2018-02-19T01:57:07.018Z,1009.11
2018-02-19T01:57:47.524Z,1009.07
2018-02-19T01:58:28.045Z,1009.04
2018-02-19T01:59:08.540Z,1009.06
2018-02-19T01:59:49.311Z,1009.03
2018-02-19T02:00:30.339Z,1009.03
2018-02-19T02:01:10.934Z,1009.04
2018-02-19T02:01:51.460Z,1009.02
2018-02-19T02:02:32.145Z,1009.05
2018-02-19T02:03:12.692Z,1008.99
2018-02-19T02:03:53.228Z,1009
2018-02-19T02:04:33.772Z,1008.97
2018-02-19T02:05:14.436Z,1009.06
2018-02-19T02:05:54.980Z,1009
2018-02-19T02:06:35.496Z,1008.97
2018-02-19T02:07:16.325Z,1008.99
2018-02-19T02:07:56.598Z,1008.99
2018-02-19T02:08:37.193Z,1008.92
2018-02-19T02:09:17.720Z,1008.99
2018-02-19T02:09:58.409Z,1008.93
2018-02-19T02:10:38.780Z,1008.99
2018-02-19T02:11:19.311Z,1008.95
2018-02-19T02:11:59.870Z,1008.94
2018-02-19T02:12:40.744Z,1008.9
2018-02-19T02:13:21.287Z,1008.91
2018-02-19T02:14:02.019Z,1008.91
2018-02-19T02:14:42.613Z,1008.91
2018-02-19T02:15:23.194Z,1008.9
2018-02-19T02:16:03.959Z,1008.88
2018-02-19T02:16:44.520Z,1008.9
2018-02-19T02:17:25.055Z,1008.91
2018-02-19T02:18:05.601Z,1008.89
2018-02-19T02:18:46.563Z,1008.83
2018-02-19T02:19:27.026Z,1008.82
2018-02-19T02:20:07.533Z,1008.79
2018-02-19T02:20:48.155Z,1008.81
2018-02-19T02:21:28.757Z,1008.78
2018-02-19T02:22:09.391Z,1008.77
2018-02-19T02:22:49.956Z,1008.78
2018-02-19T02:23:30.516Z,1008.74
2018-02-19T02:24:11.679Z,1008.74
2018-02-19T02:24:52.369Z,1008.77
2018-02-19T02:25:33.159Z,1008.74
2018-02-19T02:26:13.704Z,1008.73
2018-02-19T02:26:54.298Z,1008.75
2018-02-19T02:27:34.882Z,1008.76
2018-02-19T02:28:15.461Z,1008.74
2018-02-19T02:28:56.032Z,1008.76
2018-02-19T02:29:36.509Z,1008.76
2018-02-19T02:30:17.467Z,1008.79
2018-02-19T02:30:58.289Z,1008.77
2018-02-19T02:31:38.874Z,1008.75
2018-02-19T02:32:19.594Z,1008.73
2018-02-19T02:33:00.041Z,1008.69
2018-02-19T02:33:40.543Z,1008.73
2018-02-19T02:34:21.090Z,1008.68
2018-02-19T02:35:01.634Z,1008.67
2018-02-19T02:35:42.182Z,1008.63
2018-02-19T02:36:22.998Z,1008.63
2018-02-19T02:37:03.625Z,1008.61
2018-02-19T02:37:44.188Z,1008.64
2018-02-19T02:38:24.673Z,1008.6
2018-02-19T02:39:05.338Z,1008.61
2018-02-19T02:39:46.151Z,1008.65
2018-02-19T02:40:26.695Z,1008.62
2018-02-19T02:41:07.192Z,1008.62
2018-02-19T02:41:47.811Z,1008.63
2018-02-19T02:42:28.315Z,1008.6
2018-02-19T02:43:08.862Z,1008.63
2018-02-19T02:43:49.368Z,1008.64
2018-02-19T02:44:29.956Z,1008.59
2018-02-19T02:45:10.430Z,1008.58
2018-02-19T02:45:50.972Z,1008.58
2018-02-19T02:46:31.495Z,1008.59
2018-02-19T02:47:12.225Z,1008.62
2018-02-19T02:47:52.963Z,1008.61
2018-02-19T02:48:33.575Z,1008.56
2018-02-19T02:49:14.077Z,1008.57
2018-02-19T02:49:54.610Z,1008.57
2018-02-19T02:50:35.187Z,1008.54
2018-02-19T02:51:15.865Z,1008.56
2018-02-19T02:51:56.438Z,1008.58
2018-02-19T02:52:36.906Z,1008.52
2018-02-19T02:53:17.739Z,1008.57
2018-02-19T02:53:58.096Z,1008.6
2018-02-19T02:54:38.662Z,1008.55
2018-02-19T02:55:19.251Z,1008.57
2018-02-19T02:55:59.997Z,1008.59
2018-02-19T02:56:40.613Z,1008.57
2018-02-19T02:57:21.121Z,1008.58
2018-02-19T02:58:01.650Z,1008.53
2018-02-19T02:58:42.300Z,1008.51
2018-02-19T02:59:22.891Z,1008.55
2018-02-19T03:00:03.400Z,1008.54
2018-02-19T03:00:43.922Z,1008.52
2018-02-19T03:01:24.523Z,1008.54
2018-02-19T03:02:05.050Z,1008.51
2018-02-19T03:02:45.668Z,1008.54
2018-02-19T03:03:26.235Z,1008.54
2018-02-19T03:04:06.852Z,1008.54
2018-02-19T03:04:47.542Z,1008.54
2018-02-19T03:05:28.110Z,1008.57
2018-02-19T03:06:08.709Z,1008.59
2018-02-19T03:06:49.203Z,1008.59
2018-02-19T03:07:29.949Z,1008.6
2018-02-19T03:08:10.381Z,1008.57
2018-02-19T03:08:50.909Z,1008.54
2018-02-19T03:09:31.449Z,1008.61
2018-02-19T03:10:12.309Z,1008.6
2018-02-19T03:10:52.557Z,1008.57
2018-02-19T03:11:33.146Z,1008.55
2018-02-19T03:12:13.713Z,1008.59
2018-02-19T03:12:54.254Z,1008.58
2018-02-19T03:13:34.800Z,1008.57
2018-02-19T03:14:15.990Z,1008.57
2018-02-19T03:14:56.483Z,1008.55
2018-02-19T03:15:36.996Z,1008.56
2018-02-19T03:16:17.705Z,1008.61
2018-02-19T03:16:58.312Z,1008.54
2018-02-19T03:17:38.857Z,1008.56
2018-02-19T03:18:19.397Z,1008.54
2018-02-19T03:18:59.932Z,1008.56
2018-02-19T03:19:40.513Z,1008.57
2018-02-19T03:20:21.064Z,1008.55
2018-02-19T03:21:01.637Z,1008.57
2018-02-19T03:21:42.193Z,1008.55
2018-02-19T03:22:22.782Z,1008.55
2018-02-19T03:23:03.908Z,1008.57
2018-02-19T03:23:44.486Z,1008.53
2018-02-19T03:24:25.064Z,1008.53
2018-02-19T03:25:05.706Z,1008.51
2018-02-19T03:25:46.196Z,1008.5
2018-02-19T03:26:26.770Z,1008.5
2018-02-19T03:27:07.332Z,1008.51
2018-02-19T03:27:47.839Z,1008.55
2018-02-19T03:28:28.493Z,1008.55
2018-02-19T03:29:08.901Z,1008.54
2018-02-19T03:29:49.437Z,1008.62
2018-02-19T03:30:30.020Z,1008.58
2018-02-19T03:31:10.537Z,1008.59
2018-02-19T03:31:51.115Z,1008.61
2018-02-19T03:32:31.770Z,1008.6
2018-02-19T03:33:13.794Z,1008.57
2018-02-19T03:33:54.367Z,1008.57
2018-02-19T03:34:34.873Z,1008.6
2018-02-19T03:35:15.609Z,1008.64
2018-02-19T03:35:56.112Z,1008.61
2018-02-19T03:36:36.924Z,1008.58
2018-02-19T03:37:17.652Z,1008.62
2018-02-19T03:37:58.060Z,1008.58
2018-02-19T03:38:38.593Z,1008.61
2018-02-19T03:39:19.135Z,1008.62
2018-02-19T03:39:59.682Z,1008.61
2018-02-19T03:40:40.212Z,1008.62
2018-02-19T03:41:20.753Z,1008.61
2018-02-19T03:42:01.436Z,1008.62
2018-02-19T03:42:42.169Z,1008.57
2018-02-19T03:43:22.847Z,1008.58
2018-02-19T03:44:03.567Z,1008.55
2018-02-19T03:44:44.213Z,1008.59
2018-02-19T03:45:24.702Z,1008.56
2018-02-19T03:46:05.211Z,1008.61
2018-02-19T03:46:46.206Z,1008.59
2018-02-19T03:47:27.291Z,1008.56
2018-02-19T03:48:07.937Z,1008.52
2018-02-19T03:48:48.521Z,1008.51
2018-02-19T03:49:29.115Z,1008.54
2018-02-19T03:50:09.652Z,1008.49
2018-02-19T03:50:50.152Z,1008.55
2018-02-19T03:51:30.693Z,1008.44
2018-02-19T03:52:11.398Z,1008.46
2018-02-19T03:52:51.944Z,1008.43
2018-02-19T03:53:32.701Z,1008.42
2018-02-19T03:54:13.472Z,1008.38
2018-02-19T03:54:54.018Z,1008.4
2018-02-19T03:55:34.676Z,1008.38
2018-02-19T03:56:15.261Z,1008.41
2018-02-19T03:56:56.282Z,1008.45
2018-02-19T03:57:37.252Z,1008.42
2018-02-19T03:58:17.619Z,1008.38
2018-02-19T03:58:58.138Z,1008.4
2018-02-19T03:59:38.634Z,1008.39
2018-02-19T04:00:19.140Z,1008.34
2018-02-19T04:00:59.668Z,1008.34
2018-02-19T04:01:40.177Z,1008.35
2018-02-19T04:02:21.172Z,1008.36
2018-02-19T04:03:02.646Z,1008.38
2018-02-19T04:03:43.189Z,1008.3
2018-02-19T04:04:23.733Z,1008.29
2018-02-19T04:05:04.315Z,1008.29
2018-02-19T04:05:44.818Z,1008.33
2018-02-19T04:06:25.380Z,1008.36
2018-02-19T04:07:05.873Z,1008.32
2018-02-19T04:07:46.421Z,1008.28
2018-02-19T04:08:26.957Z,1008.3
2018-02-19T04:09:07.459Z,1008.35
2018-02-19T04:09:48.180Z,1008.3
2018-02-19T04:10:28.681Z,1008.36
2018-02-19T04:11:09.153Z,1008.28
2018-02-19T04:11:49.748Z,1008.31
2018-02-19T04:12:30.227Z,1008.27
2018-02-19T04:13:10.759Z,1008.27
2018-02-19T04:13:51.311Z,1008.26
2018-02-19T04:14:31.880Z,1008.24
2018-02-19T04:15:12.454Z,1008.28
2018-02-19T04:15:53.102Z,1008.23
2018-02-19T04:16:33.646Z,1008.25
2018-02-19T04:17:14.166Z,1008.25
2018-02-19T04:17:54.726Z,1008.22
2018-02-19T04:18:35.253Z,1008.13
2018-02-19T04:19:15.859Z,1008.18
2018-02-19T04:19:56.359Z,1008.17
2018-02-19T04:20:36.923Z,1008.18
2018-02-19T04:21:17.424Z,1008.15
2018-02-19T04:21:58.002Z,1008.17
2018-02-19T04:22:38.489Z,1008.13
2018-02-19T04:23:19.007Z,1008.13
2018-02-19T04:23:59.523Z,1008.18
2018-02-19T04:24:40.070Z,1008.17
2018-02-19T04:25:20.619Z,1008.13
2018-02-19T04:26:01.180Z,1008.12
2018-02-19T04:26:41.674Z,1008.12
2018-02-19T04:27:22.213Z,1008.1
2018-02-19T04:28:02.759Z,1008.07
2018-02-19T04:28:43.278Z,1008.1
2018-02-19T04:29:23.879Z,1008.08
2018-02-19T04:30:04.453Z,1008.05
2018-02-19T04:30:45.019Z,1008.05
2018-02-19T04:31:25.552Z,1008.05
2018-02-19T04:32:06.129Z,1008.05
2018-02-19T04:32:46.680Z,1008.03
2018-02-19T04:33:27.244Z,1007.97
2018-02-19T04:34:07.762Z,1007.99
2018-02-19T04:34:48.386Z,1008.01
2018-02-19T04:35:28.854Z,1008.02
2018-02-19T04:36:09.411Z,1008.01
2018-02-19T04:36:49.947Z,1007.94
2018-02-19T04:37:30.457Z,1007.96
2018-02-19T04:38:10.967Z,1007.93
2018-02-19T04:38:51.532Z,1007.93
2018-02-19T04:39:32.063Z,1007.94
2018-02-19T04:40:12.622Z,1007.92
2018-02-19T04:40:53.100Z,1007.93
2018-02-19T04:41:33.659Z,1007.95
2018-02-19T04:42:14.234Z,1007.94
2018-02-19T04:42:54.760Z,1007.9
2018-02-19T04:43:35.307Z,1007.95
2018-02-19T04:44:15.813Z,1007.95
2018-02-19T04:44:56.368Z,1007.97
2018-02-19T04:45:36.907Z,1007.92
2018-02-19T04:46:17.402Z,1007.97
2018-02-19T04:46:57.951Z,1008
2018-02-19T04:47:38.489Z,1007.98
2018-02-19T04:48:19.056Z,1007.94
2018-02-19T04:48:59.518Z,1007.99
2018-02-19T04:49:40.068Z,1007.98
2018-02-19T04:50:20.709Z,1007.96
2018-02-19T04:51:01.188Z,1007.94
2018-02-19T04:51:41.720Z,1007.93
2018-02-19T04:52:22.228Z,1007.98
2018-02-19T04:53:02.804Z,1007.96
2018-02-19T04:53:43.296Z,1007.97
2018-02-19T04:54:23.847Z,1008
2018-02-19T04:55:04.341Z,1007.99
2018-02-19T04:55:44.857Z,1008.01
2018-02-19T04:56:25.362Z,1008.02
2018-02-19T04:57:05.905Z,1008.02
2018-02-19T04:57:46.468Z,1008
2018-02-19T04:58:27.046Z,1007.99
2018-02-19T04:59:07.543Z,1007.97
2018-02-19T04:59:48.034Z,1007.99
2018-02-19T05:00:28.608Z,1007.92
2018-02-19T05:01:09.125Z,1007.89
2018-02-19T05:01:49.750Z,1007.93
2018-02-19T05:02:30.306Z,1007.88
2018-02-19T05:03:10.882Z,1007.88
2018-02-19T05:03:51.414Z,1007.88
2018-02-19T05:04:31.967Z,1007.86
2018-02-19T05:05:12.593Z,1007.85
2018-02-19T05:05:53.142Z,1007.89
2018-02-19T05:06:33.653Z,1007.86
2018-02-19T05:07:14.190Z,1007.89
2018-02-19T05:07:54.722Z,1007.88
2018-02-19T05:08:35.270Z,1007.92
2018-02-19T05:09:15.786Z,1007.95
2018-02-19T05:09:56.336Z,1007.89
2018-02-19T05:10:36.871Z,1007.91
2018-02-19T05:11:17.377Z,1007.92
2018-02-19T05:11:57.925Z,1007.87
2018-02-19T05:12:38.487Z,1007.85
2018-02-19T05:13:19.003Z,1007.86
2018-02-19T05:13:59.528Z,1007.87
2018-02-19T05:14:40.048Z,1007.82
2018-02-19T05:15:20.549Z,1007.82
2018-02-19T05:16:01.055Z,1007.78
2018-02-19T05:16:41.612Z,1007.84
2018-02-19T05:17:22.176Z,1007.79
2018-02-19T05:18:02.679Z,1007.83
2018-02-19T05:18:43.202Z,1007.81
2018-02-19T05:19:23.749Z,1007.78
2018-02-19T05:20:04.249Z,1007.84
2018-02-19T05:20:44.780Z,1007.87
2018-02-19T05:21:25.324Z,1007.84
2018-02-19T05:22:05.900Z,1007.9
2018-02-19T05:22:46.473Z,1007.83
2018-02-19T05:23:27.011Z,1007.85
2018-02-19T05:24:07.560Z,1007.84
2018-02-19T05:24:48.117Z,1007.85
2018-02-19T05:25:28.653Z,1007.84
2018-02-19T05:26:09.210Z,1007.87
2018-02-19T05:26:49.757Z,1007.85
2018-02-19T05:27:30.329Z,1007.93
2018-02-19T05:28:10.931Z,1007.86
2018-02-19T05:28:51.487Z,1007.91
2018-02-19T05:29:32.045Z,1007.94
2018-02-19T05:30:12.600Z,1007.88
2018-02-19T05:30:53.167Z,1007.82
2018-02-19T05:31:33.727Z,1007.82
2018-02-19T05:32:14.278Z,1007.82
2018-02-19T05:32:54.838Z,1007.79
2018-02-19T05:33:35.382Z,1007.83
2018-02-19T05:34:15.943Z,1007.87
2018-02-19T05:34:56.483Z,1007.84
2018-02-19T05:35:37.024Z,1007.83
2018-02-19T05:36:17.585Z,1007.87
2018-02-19T05:36:58.140Z,1007.83
2018-02-19T05:37:38.689Z,1007.88
2018-02-19T05:38:19.278Z,1007.89
2018-02-19T05:38:59.848Z,1007.84
2018-02-19T05:39:40.410Z,1007.9
2018-02-19T05:40:20.959Z,1007.81
2018-02-19T05:41:01.540Z,1007.89
2018-02-19T05:41:42.058Z,1007.88
2018-02-19T05:42:22.632Z,1007.91
2018-02-19T05:43:03.182Z,1007.93
2018-02-19T05:43:43.734Z,1007.88
2018-02-19T05:44:25.121Z,1007.9
2018-02-19T05:45:05.708Z,1007.9
2018-02-19T05:45:46.275Z,1007.9
2018-02-19T05:46:26.844Z,1007.92
2018-02-19T05:47:07.395Z,1007.9
2018-02-19T05:47:47.954Z,1007.91
2018-02-19T05:48:28.518Z,1007.9
2018-02-19T05:49:09.098Z,1007.93
2018-02-19T05:49:49.633Z,1007.92
2018-02-19T05:50:30.206Z,1007.93
2018-02-19T05:51:10.715Z,1007.9
2018-02-19T05:51:51.292Z,1007.88
2018-02-19T05:52:31.979Z,1007.91
2018-02-19T05:53:12.421Z,1007.95
2018-02-19T05:53:52.986Z,1007.93
2018-02-19T05:54:33.673Z,1007.94
2018-02-19T05:55:14.233Z,1007.85
2018-02-19T05:55:54.798Z,1007.87
2018-02-19T05:56:35.354Z,1007.86
2018-02-19T05:57:15.981Z,1007.9
2018-02-19T05:57:56.490Z,1007.95
2018-02-19T05:58:37.032Z,1007.86
2018-02-19T05:59:17.611Z,1007.85
2018-02-19T05:59:58.176Z,1007.93
2018-02-19T06:00:38.735Z,1007.93
2018-02-19T06:01:19.358Z,1007.88
2018-02-19T06:01:59.926Z,1007.9
2018-02-19T06:02:40.484Z,1007.91
2018-02-19T06:03:21.050Z,1007.86
2018-02-19T06:04:01.609Z,1007.92
2018-02-19T06:04:42.149Z,1007.88
2018-02-19T06:05:22.702Z,1007.88
2018-02-19T06:06:03.245Z,1007.87
2018-02-19T06:06:43.805Z,1007.84
2018-02-19T06:07:24.368Z,1007.86
2018-02-19T06:08:04.936Z,1007.86
2018-02-19T06:08:45.527Z,1007.89
2018-02-19T06:09:26.119Z,1007.86
2018-02-19T06:10:06.842Z,1007.89
2018-02-19T06:10:47.411Z,1007.88
2018-02-19T06:11:28.116Z,1007.89
2018-02-19T06:12:08.688Z,1007.88
2018-02-19T06:12:49.242Z,1007.81
2018-02-19T06:13:29.801Z,1007.79
2018-02-19T06:14:10.386Z,1007.86
2018-02-19T06:14:50.943Z,1007.84
2018-02-19T06:15:31.502Z,1007.84
2018-02-19T06:16:12.115Z,1007.83
2018-02-19T06:16:52.661Z,1007.88
2018-02-19T06:17:33.201Z,1007.83
2018-02-19T06:18:13.788Z,1007.87
2018-02-19T06:18:54.355Z,1007.91
2018-02-19T06:19:34.903Z,1007.88
2018-02-19T06:20:15.483Z,1007.88
2018-02-19T06:20:57.462Z,1007.9
2018-02-19T06:21:36.971Z,1007.92
2018-02-19T06:22:17.533Z,1007.94
2018-02-19T06:22:58.092Z,1007.87
2018-02-19T06:23:38.649Z,1007.95
2018-02-19T06:24:19.183Z,1007.9
2018-02-19T06:24:59.741Z,1007.94
2018-02-19T06:25:40.275Z,1007.95
2018-02-19T06:26:20.854Z,1007.94
2018-02-19T06:27:01.491Z,1007.97
2018-02-19T06:27:42.084Z,1007.9
2018-02-19T06:28:22.656Z,1007.92
2018-02-19T06:29:03.216Z,1007.94
2018-02-19T06:29:43.869Z,1008.01
2018-02-19T06:30:24.430Z,1008.05
2018-02-19T06:31:04.975Z,1008
2018-02-19T06:31:45.505Z,1008.06
2018-02-19T06:32:26.779Z,1008.07
2018-02-19T06:33:06.602Z,1008.08
2018-02-19T06:33:47.153Z,1008.08
2018-02-19T06:34:27.717Z,1008.05
2018-02-19T06:35:08.261Z,1008.09
2018-02-19T06:35:48.811Z,1008.11
2018-02-19T06:36:29.369Z,1008.08
2018-02-19T06:37:09.939Z,1008.07
2018-02-19T06:37:50.491Z,1008.08
2018-02-19T06:38:31.070Z,1008.08
2018-02-19T06:39:11.626Z,1008.06
2018-02-19T06:39:52.193Z,1008.07
2018-02-19T06:40:32.756Z,1008.06
2018-02-19T06:41:13.305Z,1008.09
2018-02-19T06:41:53.888Z,1008.06
2018-02-19T06:42:34.505Z,1008.04
2018-02-19T06:43:15.052Z,1008.04
2018-02-19T06:43:55.611Z,1008.07
2018-02-19T06:44:36.157Z,1008.07
2018-02-19T06:45:16.721Z,1008.01
2018-02-19T06:45:57.270Z,1008.05
2018-02-19T06:46:37.875Z,1008.03
2018-02-19T06:47:18.473Z,1008.1
2018-02-19T06:47:58.984Z,1008.03
2018-02-19T06:48:39.672Z,1008.03
2018-02-19T06:49:20.221Z,1008.02
2018-02-19T06:50:00.797Z,1008.04
2018-02-19T06:50:41.353Z,1008.05
2018-02-19T06:51:21.920Z,1008
2018-02-19T06:52:02.454Z,1007.98
2018-02-19T06:52:42.997Z,1007.98
2018-02-19T06:53:23.572Z,1007.95
2018-02-19T06:54:04.125Z,1007.92
2018-02-19T06:54:44.694Z,1007.97
2018-02-19T06:55:25.260Z,1007.95
2018-02-19T06:56:05.796Z,1007.95
2018-02-19T06:56:46.351Z,1007.88
2018-02-19T06:57:26.912Z,1007.92
2018-02-19T06:58:07.466Z,1007.93
2018-02-19T06:58:48.047Z,1007.97
2018-02-19T06:59:28.600Z,1007.93
2018-02-19T07:00:09.251Z,1007.93
2018-02-19T07:00:49.896Z,1007.93
2018-02-19T07:01:30.548Z,1007.92
2018-02-19T07:02:11.110Z,1007.92
2018-02-19T07:02:51.687Z,1007.96
2018-02-19T07:03:32.239Z,1007.95
2018-02-19T07:04:12.824Z,1007.91
2018-02-19T07:04:53.695Z,1007.96
2018-02-19T07:05:34.514Z,1007.95
2018-02-19T07:06:15.117Z,1007.93
2018-02-19T07:06:55.615Z,1007.95
2018-02-19T07:07:36.409Z,1007.89
2018-02-19T07:08:16.978Z,1007.92
2018-02-19T07:08:57.543Z,1007.9
2018-02-19T07:09:38.095Z,1007.92
2018-02-19T07:10:18.660Z,1007.9
2018-02-19T07:10:59.217Z,1007.85
2018-02-19T07:11:39.758Z,1007.82
2018-02-19T07:12:20.351Z,1007.84
2018-02-19T07:13:00.950Z,1007.87
2018-02-19T07:13:41.538Z,1007.81
2018-02-19T07:14:22.096Z,1007.81
2018-02-19T07:15:02.644Z,1007.82
2018-02-19T07:15:43.195Z,1007.83
2018-02-19T07:16:23.758Z,1007.81
2018-02-19T07:17:04.311Z,1007.79
2018-02-19T07:17:44.892Z,1007.83
2018-02-19T07:18:26.363Z,1007.75
2018-02-19T07:19:06.935Z,1007.77
2018-02-19T07:19:47.489Z,1007.76
2018-02-19T07:20:28.023Z,1007.73
2018-02-19T07:21:08.667Z,1007.76
2018-02-19T07:21:49.148Z,1007.72
2018-02-19T07:22:29.852Z,1007.74
2018-02-19T07:23:10.568Z,1007.74
2018-02-19T07:23:51.194Z,1007.77
2018-02-19T07:24:31.760Z,1007.77
2018-02-19T07:25:12.300Z,1007.79
2018-02-19T07:25:52.858Z,1007.73
2018-02-19T07:26:33.470Z,1007.72
2018-02-19T07:27:13.992Z,1007.67
2018-02-19T07:27:54.570Z,1007.64
2018-02-19T07:28:35.183Z,1007.68
2018-02-19T07:29:15.744Z,1007.68
2018-02-19T07:29:56.335Z,1007.67
2018-02-19T07:30:36.935Z,1007.68
2018-02-19T07:31:17.470Z,1007.7
2018-02-19T07:31:58.046Z,1007.67
2018-02-19T07:32:38.623Z,1007.65
2018-02-19T07:33:19.192Z,1007.69
2018-02-19T07:33:59.768Z,1007.71
2018-02-19T07:34:40.696Z,1007.73
2018-02-19T07:35:21.297Z,1007.72
2018-02-19T07:36:01.894Z,1007.72
2018-02-19T07:36:42.462Z,1007.78
2018-02-19T07:37:23.051Z,1007.72
2018-02-19T07:38:03.601Z,1007.75
2018-02-19T07:38:44.154Z,1007.74
2018-02-19T07:39:24.724Z,1007.78
2018-02-19T07:40:05.298Z,1007.74
2018-02-19T07:40:45.842Z,1007.78
2018-02-19T07:41:26.437Z,1007.73
2018-02-19T07:42:06.993Z,1007.74
2018-02-19T07:42:47.817Z,1007.76
2018-02-19T07:43:28.531Z,1007.75
2018-02-19T07:44:09.086Z,1007.72
2018-02-19T07:44:49.634Z,1007.72
2018-02-19T07:45:30.423Z,1007.75
2018-02-19T07:46:11.028Z,1007.78
2018-02-19T07:46:51.590Z,1007.72
2018-02-19T07:47:32.197Z,1007.7
2018-02-19T07:48:12.713Z,1007.72
2018-02-19T07:48:53.268Z,1007.73
2018-02-19T07:49:33.832Z,1007.72
2018-02-19T07:50:14.418Z,1007.74
2018-02-19T07:50:54.952Z,1007.75
2018-02-19T07:51:35.577Z,1007.76
2018-02-19T07:52:16.049Z,1007.69
2018-02-19T07:52:56.630Z,1007.69
2018-02-19T07:53:37.224Z,1007.65
2018-02-19T07:54:17.727Z,1007.71
2018-02-19T07:54:58.252Z,1007.72
2018-02-19T07:55:38.744Z,1007.65
2018-02-19T07:56:19.293Z,1007.61
2018-02-19T07:56:59.901Z,1007.6
2018-02-19T07:57:40.477Z,1007.63
2018-02-19T07:58:21.037Z,1007.58
2018-02-19T07:59:01.605Z,1007.58
2018-02-19T07:59:42.361Z,1007.59
2018-02-19T08:00:23.030Z,1007.59
2018-02-19T08:01:03.537Z,1007.57
2018-02-19T08:01:44.060Z,1007.59
2018-02-19T08:02:24.627Z,1007.58
2018-02-19T08:03:05.181Z,1007.6
2018-02-19T08:03:45.716Z,1007.61
2018-02-19T08:04:26.299Z,1007.53
2018-02-19T08:05:06.881Z,1007.52
2018-02-19T08:05:47.412Z,1007.56
2018-02-19T08:06:27.991Z,1007.56
2018-02-19T08:07:08.500Z,1007.53
2018-02-19T08:07:49.044Z,1007.56
2018-02-19T08:08:29.603Z,1007.58
2018-02-19T08:09:10.144Z,1007.53
2018-02-19T08:09:50.929Z,1007.58
2018-02-19T08:10:31.510Z,1007.53
2018-02-19T08:11:12.072Z,1007.57
2018-02-19T08:11:52.632Z,1007.55
2018-02-19T08:12:33.226Z,1007.56